Time;durP1;ratioP1;P1;durP2;ratioP2;P2;SDS_P1;SDS_P2;PMS_P1;PMS_P2;Temp;Humidity;BMP_temperature;BMP_pressure;BME280_temperature;BME280_humidity;BME280_pressure;Samples;Min_cycle;Max_cycle;Signal;HPM_P1;HPM_P2
2023/06/22 00:01:22;;;;;;;13.00;11.10;;;;;;;18.92;79.15;101168.17;107832;1255;61258;-51
2023/06/22 00:03:49;;;;;;;12.70;11.40;;;;;;;18.88;79.20;101169.98;107855;1254;60057;-52
2023/06/22 00:06:16;;;;;;;13.40;12.00;;;;;;;18.85;79.10;101166.29;108456;1253;73856;-54
2023/06/22 00:08:42;;;;;;;13.10;11.80;;;;;;;18.82;79.21;101163.79;108169;1256;69854;-53
2023/06/22 00:11:13;;;;;;;13.00;11.60;;;;;;;18.77;79.38;101160.77;108027;1255;70418;-52
2023/06/22 00:13:39;;;;;;;12.80;11.50;;;;;;;18.73;79.44;101155.43;108256;1254;63288;-52
2023/06/22 00:16:06;;;;;;;13.40;11.60;;;;;;;18.70;79.47;101160.52;108352;1253;59389;-51
2023/06/22 00:18:33;;;;;;;13.40;12.10;;;;;;;18.66;79.87;101160.20;108378;1250;176456;-73
2023/06/22 00:21:00;;;;;;;12.90;11.60;;;;;;;18.64;79.90;101163.05;108387;1253;71298;-72
2023/06/22 00:23:27;;;;;;;13.10;11.70;;;;;;;18.62;80.14;101173.19;108024;1256;72455;-72
2023/06/22 00:25:54;;;;;;;11.70;10.60;;;;;;;18.59;80.54;101175.73;108448;1255;62538;-72
2023/06/22 00:28:21;;;;;;;12.00;10.70;;;;;;;18.55;80.63;101178.77;108413;1254;60514;-73
2023/06/22 00:30:49;;;;;;;12.80;11.50;;;;;;;18.50;80.78;101180.98;108503;1253;74737;-72
2023/06/22 00:33:16;;;;;;;12.10;10.80;;;;;;;18.46;80.86;101178.50;108289;1256;69918;-70
2023/06/22 00:35:43;;;;;;;12.70;11.40;;;;;;;18.42;80.95;101181.83;108183;1253;71446;-72
2023/06/22 00:38:10;;;;;;;12.70;11.40;;;;;;;18.38;81.12;101188.05;108242;1256;61582;-72
2023/06/22 00:40:37;;;;;;;13.70;12.30;;;;;;;18.32;81.35;101193.36;108294;1254;59368;-73
2023/06/22 00:43:05;;;;;;;13.00;11.80;;;;;;;18.28;81.70;101198.30;108247;1254;338541;-73
2023/06/22 00:45:32;;;;;;;12.00;10.80;;;;;;;18.23;81.81;101202.86;108759;1254;70483;-72
2023/06/22 00:48:00;;;;;;;12.80;11.50;;;;;;;18.18;81.75;101201.15;107693;1256;72068;-72
2023/06/22 00:50:33;;;;;;;14.10;12.70;;;;;;;18.13;81.80;101192.13;108467;1254;63192;-74
2023/06/22 00:53:08;;;;;;;14.50;13.10;;;;;;;18.10;82.05;101183.25;108467;1254;60405;-73
2023/06/22 00:55:43;;;;;;;14.00;12.60;;;;;;;18.06;82.29;101175.02;108183;1254;73820;-73
2023/06/22 00:58:11;;;;;;;15.50;13.90;;;;;;;18.03;82.60;101165.40;108243;1254;69977;-73
2023/06/22 01:00:40;;;;;;;14.90;13.40;;;;;;;18.01;82.80;101166.77;108249;1254;73388;-72
2023/06/22 01:03:10;;;;;;;14.80;13.30;;;;;;;17.99;83.08;101160.88;108534;1254;60770;-73
2023/06/22 01:05:39;;;;;;;15.40;13.90;;;;;;;17.97;83.38;101157.38;108350;1254;59190;-73
2023/06/22 01:08:30;;;;;;;14.60;13.20;;;;;;;17.95;83.38;101159.19;108212;1254;73595;-74
2023/06/22 01:11:15;;;;;;;14.20;12.80;;;;;;;17.91;83.76;101152.84;107897;1256;71165;-72
2023/06/22 01:13:57;;;;;;;15.40;13.80;;;;;;;17.89;83.99;101151.62;108181;1255;71465;-73
2023/06/22 01:16:28;;;;;;;14.70;13.30;;;;;;;17.86;84.24;101149.04;107697;1254;62191;-73
2023/06/22 01:18:57;;;;;;;15.20;13.60;;;;;;;17.83;84.17;101144.33;108288;1254;60649;-74
2023/06/22 01:21:27;;;;;;;14.70;13.10;;;;;;;17.81;84.46;101136.77;108142;1254;74102;-72
2023/06/22 01:24:14;;;;;;;15.00;13.50;;;;;;;17.78;84.70;101140.73;108406;1256;71705;-74
2023/06/22 01:27:15;;;;;;;15.60;13.50;;;;;;;17.75;84.80;101141.56;108040;1254;72015;-73
2023/06/22 01:29:43;;;;;;;14.80;13.20;;;;;;;17.72;84.87;101140.09;108355;1255;60931;-73
2023/06/22 01:32:11;;;;;;;14.70;13.30;;;;;;;17.69;85.04;101133.53;108195;1254;59234;-74
2023/06/22 01:34:40;;;;;;;14.50;12.90;;;;;;;17.66;85.07;101127.18;108348;1256;73604;-73
2023/06/22 01:37:07;;;;;;;14.20;12.70;;;;;;;17.63;85.36;101122.04;108587;1254;71392;-74
2023/06/22 01:39:35;;;;;;;15.20;13.60;;;;;;;17.61;85.54;101121.26;108730;1254;72650;-73
2023/06/22 01:42:03;;;;;;;14.60;13.10;;;;;;;17.60;85.88;101127.38;108439;1254;62427;-73
2023/06/22 01:44:30;;;;;;;14.80;13.30;;;;;;;17.59;86.08;101129.93;108515;1254;60963;-73
2023/06/22 01:46:58;;;;;;;14.40;12.90;;;;;;;17.59;86.25;101129.27;108201;1254;71927;-73
2023/06/22 01:49:25;;;;;;;14.70;13.10;;;;;;;17.58;86.37;101130.06;108446;1254;72536;-72
2023/06/22 01:51:51;;;;;;;14.80;13.30;;;;;;;17.57;86.39;101128.49;108321;1256;71752;-73
2023/06/22 01:54:18;;;;;;;16.30;13.00;;;;;;;17.55;86.67;101127.08;108400;1256;60841;-74
2023/06/22 01:56:45;;;;;;;13.80;12.30;;;;;;;17.54;86.80;101124.05;108517;1254;60445;-73
2023/06/22 01:59:26;;;;;;;17.80;13.40;;;;;;;17.52;86.83;101125.27;108527;1256;73214;-72
2023/06/22 02:02:07;;;;;;;15.30;13.50;;;;;;;17.51;87.10;101127.27;108984;1254;70256;-72
2023/06/22 02:04:44;;;;;;;15.60;12.80;;;;;;;17.50;87.13;101127.39;108221;1254;70624;-72
2023/06/22 02:07:16;;;;;;;15.00;13.30;;;;;;;17.49;87.16;101132.07;108417;1254;63205;-72
2023/06/22 02:09:45;;;;;;;14.90;13.40;;;;;;;17.47;87.22;101135.65;108072;1254;61270;-73
2023/06/22 02:12:16;;;;;;;14.20;12.70;;;;;;;17.47;87.32;101131.09;108662;1254;73749;-73
2023/06/22 02:14:42;;;;;;;14.50;13.00;;;;;;;17.47;87.44;101133.39;108268;1254;70080;-74
2023/06/22 02:17:09;;;;;;;14.70;12.40;;;;;;;17.47;87.56;101140.33;108359;1254;71444;-72
2023/06/22 02:19:37;;;;;;;14.10;12.70;;;;;;;17.47;87.52;101139.98;108911;1257;59740;-72
2023/06/22 02:22:04;;;;;;;14.30;12.70;;;;;;;17.46;87.56;101134.86;108436;1254;58890;-72
2023/06/22 02:24:33;;;;;;;13.90;12.50;;;;;;;17.47;87.55;101129.64;108671;1255;72422;-72
2023/06/22 02:27:01;;;;;;;14.40;12.90;;;;;;;17.47;87.41;101133.71;108189;1255;69972;-73
2023/06/22 02:29:28;;;;;;;14.30;12.80;;;;;;;17.45;87.37;101127.73;108472;1254;73031;-73
2023/06/22 02:31:55;;;;;;;14.00;12.60;;;;;;;17.46;87.34;101137.19;108107;1254;61672;-73
2023/06/22 02:34:22;;;;;;;14.00;12.50;;;;;;;17.46;87.38;101137.80;108555;1254;59162;-72
2023/06/22 02:36:52;;;;;;;13.40;12.00;;;;;;;17.45;87.51;101140.45;108529;1254;73817;-73
2023/06/22 02:39:24;;;;;;;13.90;12.30;;;;;;;17.44;87.64;101142.02;108532;1254;71839;-72
2023/06/22 02:41:54;;;;;;;14.00;12.00;;;;;;;17.42;87.58;101145.98;108443;1254;72825;-73
2023/06/22 02:44:21;;;;;;;13.80;12.10;;;;;;;17.41;87.62;101151.44;108274;1256;61696;-72
2023/06/22 02:46:48;;;;;;;14.80;12.10;;;;;;;17.39;87.63;101158.78;108391;1256;58432;-72
2023/06/22 02:49:15;;;;;;;13.80;12.00;;;;;;;17.37;87.75;101159.19;107935;1254;72578;-71
2023/06/22 02:51:46;;;;;;;14.30;12.80;;;;;;;17.37;87.75;101163.77;107979;1254;70161;-72
2023/06/22 02:54:13;;;;;;;13.50;12.10;;;;;;;17.34;87.87;101169.05;108878;1256;72527;-71
2023/06/22 02:56:40;;;;;;;13.00;11.60;;;;;;;17.32;87.96;101175.08;108291;1254;63285;-72
2023/06/22 02:59:07;;;;;;;13.30;12.00;;;;;;;17.31;87.96;101177.19;108641;1254;59664;-72
2023/06/22 03:01:40;;;;;;;13.90;11.90;;;;;;;17.29;87.99;101182.14;108201;1254;73026;-73
2023/06/22 03:04:08;;;;;;;12.90;11.50;;;;;;;17.27;88.15;101185.65;108509;1254;69946;-72
2023/06/22 03:06:35;;;;;;;13.80;12.30;;;;;;;17.24;88.22;101186.23;108230;1254;72496;-72
2023/06/22 03:09:04;;;;;;;13.70;12.00;;;;;;;17.22;88.34;101183.66;108171;1255;60671;-72
2023/06/22 03:11:32;;;;;;;13.50;12.10;;;;;;;17.21;88.50;101189.52;108577;1254;60796;-73
2023/06/22 03:14:00;;;;;;;14.10;12.30;;;;;;;17.20;88.57;101192.13;108510;1254;73900;-72
2023/06/22 03:16:28;;;;;;;12.90;11.60;;;;;;;17.19;88.64;101194.73;108668;1256;70001;-72
2023/06/22 03:18:54;;;;;;;13.10;11.30;;;;;;;17.17;88.79;101188.20;108148;1254;71524;-72
2023/06/22 03:21:28;;;;;;;13.50;12.00;;;;;;;17.18;88.83;101189.73;109089;1255;62522;-72
2023/06/22 03:23:56;;;;;;;14.10;12.10;;;;;;;17.18;88.75;101185.41;108215;1255;59096;-72
2023/06/22 03:26:23;;;;;;;13.60;12.20;;;;;;;17.19;88.91;101189.73;107771;1259;74982;-72
2023/06/22 03:28:50;;;;;;;13.30;11.90;;;;;;;17.19;88.96;101190.59;108281;1254;70124;-72
2023/06/22 03:31:21;;;;;;;13.70;12.30;;;;;;;17.19;89.07;101188.70;107929;1254;73104;-72
2023/06/22 03:33:51;;;;;;;13.70;11.80;;;;;;;17.19;89.16;101189.57;107952;1256;61112;-71
2023/06/22 03:36:22;;;;;;;13.20;11.80;;;;;;;17.21;89.34;101190.02;108437;1254;59013;-73
2023/06/22 03:38:50;;;;;;;14.30;12.60;;;;;;;17.23;89.35;101189.36;108248;1256;72765;-71
2023/06/22 03:41:16;;;;;;;14.10;12.50;;;;;;;17.26;89.41;101185.52;108001;1254;71194;-73
2023/06/22 03:43:43;;;;;;;14.80;13.20;;;;;;;17.31;89.39;101174.92;108090;1254;73325;-72
2023/06/22 03:46:10;;;;;;;13.50;12.00;;;;;;;17.34;89.37;101172.81;107608;1254;61383;-72
2023/06/22 03:48:38;;;;;;;13.90;12.40;;;;;;;17.39;89.27;101176.98;107910;1256;60400;-72
2023/06/22 03:51:05;;;;;;;14.40;12.90;;;;;;;17.45;89.24;101178.17;108252;1254;73349;-73
2023/06/22 03:53:31;;;;;;;15.20;12.60;;;;;;;17.51;89.29;101182.39;107985;1257;69977;-73
2023/06/22 03:55:58;;;;;;;13.70;12.30;;;;;;;17.59;89.16;101182.73;108197;1254;71249;-73
2023/06/22 03:58:25;;;;;;;13.20;11.80;;;;;;;17.66;88.91;101179.39;108890;1254;61570;-73
2023/06/22 04:00:52;;;;;;;14.00;12.20;;;;;;;17.75;88.76;101181.23;109119;1254;59230;-73
2023/06/22 04:03:19;;;;;;;14.20;12.60;;;;;;;17.84;88.53;101178.27;108271;1254;72692;-74
2023/06/22 04:05:47;;;;;;;13.60;12.20;;;;;;;17.95;88.33;101177.61;108112;1254;70954;-73
2023/06/22 04:08:14;;;;;;;13.40;12.10;;;;;;;18.07;88.11;101176.00;107964;1254;71478;-73
2023/06/22 04:10:41;;;;;;;13.80;11.50;;;;;;;18.19;87.52;101181.11;108246;1254;60517;-72
2023/06/22 04:13:08;;;;;;;14.30;11.60;;;;;;;18.28;87.09;101182.48;108047;1254;59772;-73
2023/06/22 04:15:35;;;;;;;13.90;10.70;;;;;;;18.39;86.88;101179.65;108746;1254;73896;-73
2023/06/22 04:18:02;;;;;;;12.60;11.10;;;;;;;18.48;86.41;101182.74;108507;1256;69628;-73
2023/06/22 04:20:31;;;;;;;13.20;11.30;;;;;;;18.57;86.05;101183.30;108180;1258;71191;-73
2023/06/22 04:22:58;;;;;;;12.80;10.80;;;;;;;18.66;85.83;101177.27;108035;1254;61348;-72
2023/06/22 04:25:25;;;;;;;11.90;10.70;;;;;;;18.74;85.40;101172.33;108593;1254;60661;-75
2023/06/22 04:27:53;;;;;;;11.50;10.10;;;;;;;18.79;85.04;101171.86;108134;1255;72095;-73
2023/06/22 04:30:19;;;;;;;12.10;10.80;;;;;;;18.83;84.87;101175.55;107816;1254;69986;-75
2023/06/22 04:32:55;;;;;;;12.10;10.30;;;;;;;18.87;84.66;101176.27;108457;1256;70926;-75
2023/06/22 04:35:22;;;;;;;13.60;10.10;;;;;;;18.94;84.81;101174.73;108559;1254;60556;-74
2023/06/22 04:37:49;;;;;;;12.90;10.80;;;;;;;19.02;84.76;101176.66;108400;1254;58948;-74
2023/06/22 04:40:16;;;;;;;13.40;11.00;;;;;;;19.09;84.57;101173.17;108490;1254;71827;-74
2023/06/22 04:42:51;;;;;;;16.10;9.60;;;;;;;19.20;84.95;101177.30;108665;1254;69998;-75
2023/06/22 04:45:19;;;;;;;11.70;9.80;;;;;;;19.48;85.01;101180.80;108286;1254;72590;-75
2023/06/22 04:47:46;;;;;;;12.20;9.40;;;;;;;19.72;84.10;101183.11;108063;1254;60770;-75
2023/06/22 04:50:14;;;;;;;12.00;9.00;;;;;;;19.96;83.38;101184.54;108253;1255;60110;-75
2023/06/22 04:52:41;;;;;;;11.70;9.60;;;;;;;20.25;82.11;101182.11;108345;1254;72738;-75
2023/06/22 04:55:08;;;;;;;11.90;8.90;;;;;;;20.52;80.77;101177.27;107894;1254;71464;-76
2023/06/22 04:57:39;;;;;;;9.90;8.60;;;;;;;20.75;79.56;101175.58;108078;1254;71609;-75
2023/06/22 05:00:12;;;;;;;11.30;8.60;;;;;;;20.95;78.60;101170.99;108591;1254;61215;-76
2023/06/22 05:02:40;;;;;;;10.80;8.90;;;;;;;21.13;77.60;101169.13;107970;1254;60496;-75
2023/06/22 05:05:08;;;;;;;13.00;8.40;;;;;;;21.29;77.18;101169.98;107974;1254;73891;-77
2023/06/22 05:07:35;;;;;;;14.60;9.10;;;;;;;21.47;76.30;101170.84;107986;1255;71265;-77
2023/06/22 05:10:03;;;;;;;12.00;8.30;;;;;;;21.61;75.53;101170.16;108632;1255;72767;-76
2023/06/22 05:12:30;;;;;;;12.90;8.60;;;;;;;21.71;74.94;101165.11;107896;1256;60967;-74
2023/06/22 05:14:57;;;;;;;12.20;8.70;;;;;;;21.81;74.19;101161.90;108180;1254;60039;-77
2023/06/22 05:17:25;;;;;;;13.90;7.70;;;;;;;21.91;73.73;101161.46;108139;1254;73779;-75
2023/06/22 05:19:51;;;;;;;15.20;8.40;;;;;;;22.05;73.34;101159.74;108199;1254;69939;-77
2023/06/22 05:22:18;;;;;;;14.20;8.50;;;;;;;22.17;73.07;101157.82;108210;1254;72652;-74
2023/06/22 05:24:46;;;;;;;11.60;7.40;;;;;;;22.27;72.46;101155.92;108397;1254;63482;-75
2023/06/22 05:27:13;;;;;;;11.50;7.80;;;;;;;22.36;71.78;101152.57;108335;1256;59648;-76
2023/06/22 05:29:40;;;;;;;12.50;7.70;;;;;;;22.44;71.34;101148.45;107991;1254;72603;-76
2023/06/22 05:32:07;;;;;;;11.60;8.20;;;;;;;22.51;71.11;101150.48;107839;1254;71262;-76
2023/06/22 05:34:34;;;;;;;11.60;7.90;;;;;;;22.63;71.12;101152.28;107874;1254;71494;-75
2023/06/22 05:37:02;;;;;;;10.00;7.60;;;;;;;22.74;70.80;101146.48;108188;1255;61105;-76
2023/06/22 05:39:29;;;;;;;7.70;6.70;;;;;;;22.84;70.45;101151.04;108390;1254;60467;-73
2023/06/22 05:41:56;;;;;;;8.50;6.80;;;;;;;22.93;70.01;101150.02;107997;1254;72762;-73
2023/06/22 05:44:22;;;;;;;10.50;6.60;;;;;;;22.98;69.64;101151.79;108267;1254;71617;-75
2023/06/22 05:46:49;;;;;;;11.00;7.80;;;;;;;23.03;69.29;101149.25;108240;1255;71637;-75
2023/06/22 05:49:16;;;;;;;12.30;7.00;;;;;;;23.08;69.16;101150.42;108419;1254;62132;-76
2023/06/22 05:51:43;;;;;;;9.20;6.60;;;;;;;23.16;69.08;101151.17;108017;1256;59661;-75
2023/06/22 05:54:10;;;;;;;9.70;6.50;;;;;;;23.24;68.83;101151.89;108036;1254;73364;-73
2023/06/22 05:56:37;;;;;;;8.90;6.00;;;;;;;23.29;68.03;101154.73;108352;1254;71155;-76
2023/06/22 05:59:04;;;;;;;10.20;7.90;;;;;;;23.32;68.26;101156.61;108369;1256;71502;-77
2023/06/22 06:01:34;;;;;;;14.10;7.30;;;;;;;23.35;67.82;101156.77;108242;1254;60465;-76
2023/06/22 06:04:03;;;;;;;9.50;6.40;;;;;;;23.39;67.53;101161.04;108377;1255;59251;-77
2023/06/22 06:06:31;;;;;;;8.90;6.40;;;;;;;23.46;67.52;101160.77;107955;1254;72601;-74
2023/06/22 06:08:58;;;;;;;9.50;6.60;;;;;;;23.55;67.80;101156.44;108505;1253;72173;-74
2023/06/22 06:11:25;;;;;;;8.10;6.30;;;;;;;23.65;68.19;101153.41;108750;1253;71608;-74
2023/06/22 06:13:52;;;;;;;7.60;6.70;;;;;;;23.72;67.24;101153.73;108940;1253;59652;-75
2023/06/22 06:16:19;;;;;;;8.10;5.90;;;;;;;23.77;66.76;101149.59;108401;1254;60773;-74
2023/06/22 06:18:46;;;;;;;11.70;6.90;;;;;;;23.87;66.69;101148.75;109049;1256;73746;-74
2023/06/22 06:21:12;;;;;;;8.70;7.00;;;;;;;23.95;66.29;101151.30;108590;1253;69089;-75
2023/06/22 06:23:39;;;;;;;7.80;6.40;;;;;;;24.05;66.20;101150.31;108529;1253;71556;-75
2023/06/22 06:26:06;;;;;;;8.50;6.30;;;;;;;24.16;66.09;101150.81;108255;1253;61225;-74
2023/06/22 06:28:34;;;;;;;17.60;7.70;;;;;;;24.30;65.49;101148.51;108160;1253;60378;-75
2023/06/22 06:31:01;;;;;;;7.90;6.10;;;;;;;24.41;65.20;101139.95;108296;1256;73605;-75
2023/06/22 06:33:28;;;;;;;9.20;6.70;;;;;;;24.54;64.66;101140.86;108185;1253;71132;-74
2023/06/22 06:35:55;;;;;;;7.10;5.80;;;;;;;24.65;64.25;101137.96;108365;1253;72771;-75
2023/06/22 06:38:22;;;;;;;12.20;8.00;;;;;;;24.73;63.72;101135.22;108560;1253;60447;-73
2023/06/22 06:40:49;;;;;;;7.80;6.00;;;;;;;24.80;63.50;101133.20;108813;1253;59110;-74
2023/06/22 06:43:16;;;;;;;6.40;5.60;;;;;;;24.90;63.19;101132.14;109007;1256;74112;-74
2023/06/22 06:45:44;;;;;;;7.30;5.90;;;;;;;25.00;62.46;101132.38;108588;1253;69729;-74
2023/06/22 06:48:11;;;;;;;6.70;5.10;;;;;;;25.09;62.13;101133.52;108202;1253;72477;-73
2023/06/22 06:50:38;;;;;;;8.90;5.10;;;;;;;25.21;61.81;101131.66;108199;1253;60507;-75
2023/06/22 06:53:05;;;;;;;6.90;5.10;;;;;;;25.32;61.01;101127.30;108303;1253;60387;-76
2023/06/22 06:55:35;;;;;;;7.20;5.80;;;;;;;25.41;60.57;101124.52;108843;1253;73910;-75
2023/06/22 06:58:07;;;;;;;7.20;4.90;;;;;;;25.48;59.42;101122.44;108004;1253;70048;-74
2023/06/22 07:00:35;;;;;;;9.50;4.60;;;;;;;25.54;58.88;101120.08;108707;1255;72809;-74
2023/06/22 07:03:02;;;;;;;6.70;4.90;;;;;;;25.55;58.21;101120.39;108238;1255;60379;-76
2023/06/22 07:05:29;;;;;;;6.70;5.20;;;;;;;25.57;58.36;101121.88;108342;1253;59666;-76
2023/06/22 07:07:56;;;;;;;6.80;4.30;;;;;;;25.65;57.95;101122.88;108383;1253;73197;-76
2023/06/22 07:10:23;;;;;;;5.50;4.20;;;;;;;25.76;57.73;101124.13;108212;1256;70443;-74
2023/06/22 07:12:49;;;;;;;7.70;4.30;;;;;;;25.87;57.25;101124.70;108388;1257;72428;-75
2023/06/22 07:15:16;;;;;;;6.60;4.20;;;;;;;25.93;56.52;101125.30;108479;1253;60436;-74
2023/06/22 07:17:43;;;;;;;5.70;3.90;;;;;;;26.00;55.97;101124.83;108146;1253;59522;-75
2023/06/22 07:20:11;;;;;;;6.70;4.20;;;;;;;26.11;55.76;101128.02;108157;1253;74444;-75
2023/06/22 07:22:40;;;;;;;6.00;4.50;;;;;;;26.17;55.38;101125.52;107964;1253;71049;-74
2023/06/22 07:25:10;;;;;;;7.70;4.10;;;;;;;26.23;55.49;101125.75;108382;1253;72543;-75
2023/06/22 07:27:39;;;;;;;6.00;4.60;;;;;;;26.29;55.21;101123.30;108007;1253;60811;-74
2023/06/22 07:30:07;;;;;;;6.90;4.30;;;;;;;26.28;55.03;101126.45;107888;1262;60387;-74
2023/06/22 07:32:34;;;;;;;5.10;3.70;;;;;;;26.30;54.72;101133.48;108490;1253;74189;-75
2023/06/22 07:35:02;;;;;;;4.80;4.10;;;;;;;26.32;54.77;101127.92;108544;1253;70111;-75
2023/06/22 07:37:28;;;;;;;6.20;4.60;;;;;;;26.33;54.68;101119.55;108685;1253;72767;-74
2023/06/22 07:39:58;;;;;;;6.80;4.20;;;;;;;26.31;54.39;101119.94;108303;1253;60470;-75
2023/06/22 07:42:26;;;;;;;6.20;4.70;;;;;;;26.27;54.47;101116.23;108623;1257;59840;-72
2023/06/22 07:44:54;;;;;;;4.90;4.40;;;;;;;26.20;54.30;101114.48;108170;1253;73990;-74
2023/06/22 07:47:25;;;;;;;5.80;4.70;;;;;;;26.13;54.43;101112.39;108015;1253;69746;-72
2023/06/22 07:49:54;;;;;;;5.70;4.40;;;;;;;26.04;54.31;101112.60;108380;1253;71543;-74
2023/06/22 07:52:21;;;;;;;6.10;4.40;;;;;;;25.97;54.74;101118.62;108680;1253;60364;-74
2023/06/22 07:54:48;;;;;;;6.00;4.50;;;;;;;25.94;55.03;101117.32;108529;1253;59130;-75
2023/06/22 07:57:15;;;;;;;4.90;4.40;;;;;;;25.97;55.18;101117.85;108509;1253;74083;-75
2023/06/22 07:59:41;;;;;;;6.40;4.20;;;;;;;26.03;55.08;101121.79;108174;1253;70326;-74
2023/06/22 08:02:09;;;;;;;6.90;4.80;;;;;;;26.10;55.13;101122.02;108110;1256;72666;-73
2023/06/22 08:04:36;;;;;;;6.40;4.60;;;;;;;26.17;54.91;101119.31;108216;1253;59383;-73
2023/06/22 08:07:04;;;;;;;6.60;4.70;;;;;;;26.23;54.83;101117.32;108250;1259;59183;-74
2023/06/22 08:09:32;;;;;;;6.10;4.80;;;;;;;26.32;54.52;101111.02;108256;1257;73090;-74
2023/06/22 08:11:59;;;;;;;6.80;4.50;;;;;;;26.42;54.90;101111.08;108378;1253;70356;-74
2023/06/22 08:14:27;;;;;;;5.50;4.50;;;;;;;26.58;54.75;101116.76;108583;1253;74300;-75
2023/06/22 08:16:53;;;;;;;7.40;5.00;;;;;;;26.72;54.36;101116.39;108030;1253;60478;-75
2023/06/22 08:19:21;;;;;;;7.00;5.10;;;;;;;26.83;53.99;101113.06;108220;1254;60289;-75
2023/06/22 08:21:47;;;;;;;6.80;4.80;;;;;;;26.98;54.11;101117.13;108427;1253;72666;-75
2023/06/22 08:24:14;;;;;;;6.90;5.30;;;;;;;27.17;53.88;101120.48;108527;1253;71492;-74
2023/06/22 08:26:41;;;;;;;9.90;6.30;;;;;;;27.29;52.94;101126.25;107976;1253;71986;-74
2023/06/22 08:29:07;;;;;;;7.50;5.70;;;;;;;27.34;52.81;101131.25;108538;1253;60972;-74
2023/06/22 08:31:34;;;;;;;7.80;5.80;;;;;;;27.39;52.28;101127.63;108714;1253;60361;-76
2023/06/22 08:34:01;;;;;;;7.70;5.50;;;;;;;27.34;51.99;101124.59;108518;1253;73892;-74
2023/06/22 08:36:35;;;;;;;6.80;5.70;;;;;;;27.34;52.33;101124.48;107962;1254;69975;-74
2023/06/22 08:39:02;;;;;;;7.30;5.80;;;;;;;27.35;52.18;101126.71;108363;1253;73114;-76
2023/06/22 08:41:29;;;;;;;6.80;5.90;;;;;;;27.37;52.39;101132.44;108293;1254;60476;-74
2023/06/22 08:43:57;;;;;;;7.00;6.30;;;;;;;27.42;52.43;101133.18;108563;1253;60361;-74
2023/06/22 08:46:29;;;;;;;7.70;5.80;;;;;;;27.44;52.76;101135.34;107835;1254;74002;-73
2023/06/22 08:48:57;;;;;;;8.00;6.30;;;;;;;27.50;52.84;101128.08;108441;1256;69687;-74
2023/06/22 08:51:24;;;;;;;8.10;6.10;;;;;;;27.61;52.87;101131.41;108244;1253;71749;-73
2023/06/22 08:53:51;;;;;;;7.20;6.10;;;;;;;27.68;52.66;101130.63;108199;1253;60361;-74
2023/06/22 08:56:18;;;;;;;7.00;5.80;;;;;;;27.76;52.81;101132.02;108455;1254;59161;-73
2023/06/22 08:58:45;;;;;;;8.70;6.30;;;;;;;27.89;52.58;101120.85;108398;1253;71675;-75
2023/06/22 09:01:12;;;;;;;8.20;6.20;;;;;;;27.98;52.02;101111.74;108334;1254;70764;-74
2023/06/22 09:03:38;;;;;;;7.70;6.10;;;;;;;28.04;52.10;101108.23;108730;1253;71499;-73
2023/06/22 09:06:06;;;;;;;8.40;6.10;;;;;;;28.12;52.27;101105.93;107984;1253;60777;-73
2023/06/22 09:08:33;;;;;;;9.10;6.90;;;;;;;28.22;51.76;101106.41;108565;1253;59620;-73
2023/06/22 09:10:59;;;;;;;8.60;7.30;;;;;;;28.27;51.64;101107.79;108236;1253;73952;-73
2023/06/22 09:13:27;;;;;;;8.50;7.10;;;;;;;28.35;51.83;101102.88;108715;1258;71742;-73
2023/06/22 09:15:54;;;;;;;10.60;7.30;;;;;;;28.51;51.47;101100.36;108234;1253;71868;-74
2023/06/22 09:18:21;;;;;;;11.40;8.00;;;;;;;28.67;50.92;101100.30;108417;1253;60503;-73
2023/06/22 09:20:49;;;;;;;9.00;8.10;;;;;;;28.83;50.60;101098.84;108168;1253;61018;-73
2023/06/22 09:23:16;;;;;;;11.10;7.50;;;;;;;29.02;50.08;101088.38;108368;1254;74298;-73
2023/06/22 09:25:42;;;;;;;9.50;7.50;;;;;;;29.21;49.48;101080.49;108604;1257;71161;-74
2023/06/22 09:28:09;;;;;;;8.70;7.80;;;;;;;29.37;48.91;101078.67;108581;1254;72508;-73
2023/06/22 09:30:36;;;;;;;8.00;7.20;;;;;;;29.52;49.04;101074.27;108397;1253;59635;-74
2023/06/22 09:33:03;;;;;;;8.50;7.10;;;;;;;29.74;48.56;101067.86;108404;1254;60421;-75
2023/06/22 09:35:30;;;;;;;7.90;7.00;;;;;;;29.94;48.56;101068.67;108212;1254;73758;-74
2023/06/22 09:37:56;;;;;;;8.90;7.20;;;;;;;30.08;48.17;101070.00;108244;1253;71267;-73
2023/06/22 09:40:23;;;;;;;8.50;7.60;;;;;;;30.13;47.34;101068.02;108186;1253;70959;-75
2023/06/22 09:42:50;;;;;;;8.80;7.30;;;;;;;30.08;47.27;101067.21;108504;1253;60936;-75
2023/06/22 09:45:17;;;;;;;8.80;7.20;;;;;;;30.07;47.46;101058.95;108430;1258;59132;-74
2023/06/22 09:47:44;;;;;;;8.70;7.20;;;;;;;30.07;47.18;101059.72;108752;1253;74317;-74
2023/06/22 09:50:11;;;;;;;7.70;6.90;;;;;;;30.06;47.48;101061.54;108442;1253;72813;-73
2023/06/22 09:52:37;;;;;;;9.10;7.70;;;;;;;30.06;47.28;101067.95;108180;1254;71518;-74
2023/06/22 09:55:07;;;;;;;12.80;7.70;;;;;;;30.02;47.08;101071.61;108408;1259;59226;-74
2023/06/22 09:57:34;;;;;;;8.60;7.20;;;;;;;30.00;47.39;101072.36;107901;1253;60546;-73
2023/06/22 10:00:01;;;;;;;8.90;7.60;;;;;;;30.10;47.25;101065.83;108459;1254;72736;-73
2023/06/22 10:02:29;;;;;;;8.70;7.40;;;;;;;30.22;47.08;101059.83;107934;1253;70352;-74
2023/06/22 10:04:56;;;;;;;10.50;7.50;;;;;;;30.37;46.45;101056.09;108245;1254;72974;-76
2023/06/22 10:07:23;;;;;;;10.60;7.50;;;;;;;30.61;46.45;101060.83;108444;1253;59257;-74
2023/06/22 10:09:49;;;;;;;8.70;7.60;;;;;;;30.89;46.67;101059.45;108282;1253;59248;-74
2023/06/22 10:12:16;;;;;;;8.50;7.10;;;;;;;31.16;46.27;101063.10;108207;1254;60454;-74
2023/06/22 10:14:43;;;;;;;8.80;7.20;;;;;;;31.39;46.08;101061.44;108308;1256;69472;-73
2023/06/22 10:17:10;;;;;;;9.20;7.60;;;;;;;31.59;45.23;101057.61;108332;1258;71691;-74
2023/06/22 10:19:38;;;;;;;9.80;7.00;;;;;;;31.73;44.82;101051.05;108321;1256;60547;-73
2023/06/22 10:22:05;;;;;;;8.60;7.80;;;;;;;31.84;44.32;101053.48;107984;1253;59657;-74
2023/06/22 10:24:32;;;;;;;7.80;7.00;;;;;;;31.93;44.18;101048.75;108381;1253;73829;-75
2023/06/22 10:26:59;;;;;;;9.00;7.70;;;;;;;32.03;44.15;101050.89;108289;1253;71414;-74
2023/06/22 10:29:25;;;;;;;8.60;7.70;;;;;;;32.05;43.80;101050.29;108211;1255;73060;-73
2023/06/22 10:31:52;;;;;;;8.90;7.40;;;;;;;31.97;43.40;101054.36;108383;1253;60215;-73
2023/06/22 10:34:19;;;;;;;9.70;7.90;;;;;;;31.85;43.48;101049.23;108159;1253;59426;-74
2023/06/22 10:36:48;;;;;;;8.80;7.60;;;;;;;31.75;43.48;101038.45;108132;1254;72353;-74
2023/06/22 10:39:15;;;;;;;8.90;7.90;;;;;;;31.72;43.72;101037.70;108199;1253;71132;-76
2023/06/22 10:41:42;;;;;;;8.40;7.50;;;;;;;31.71;43.70;101032.77;107999;1257;71544;-74
2023/06/22 10:44:09;;;;;;;9.60;7.90;;;;;;;31.66;43.77;101036.89;108481;1253;60327;-75
2023/06/22 10:46:36;;;;;;;9.20;7.80;;;;;;;31.63;43.94;101033.67;108498;1253;60457;-75
2023/06/22 10:49:02;;;;;;;8.60;7.80;;;;;;;31.58;43.68;101033.39;108569;1254;72611;-75
2023/06/22 10:51:30;;;;;;;9.30;8.30;;;;;;;31.54;44.17;101025.15;108670;1253;70922;-74
2023/06/22 10:53:57;;;;;;;9.90;7.60;;;;;;;31.58;44.00;101017.17;108234;1257;71925;-74
2023/06/22 10:56:24;;;;;;;8.20;7.40;;;;;;;31.61;44.40;101009.79;108360;1253;59178;-74
2023/06/22 10:58:50;;;;;;;11.30;7.10;;;;;;;31.69;44.10;101006.76;108183;1253;61572;-74
2023/06/22 11:01:17;;;;;;;7.70;7.00;;;;;;;31.73;43.70;101005.31;108340;1259;72613;-75
2023/06/22 11:04:01;;;;;;;8.40;7.20;;;;;;;31.70;43.22;101007.23;108167;1253;72467;-74
2023/06/22 11:06:28;;;;;;;7.90;7.10;;;;;;;31.68;43.79;101001.58;108581;1255;73030;-73
2023/06/22 11:08:55;;;;;;;8.30;7.40;;;;;;;31.68;43.42;100996.84;108135;1259;60504;-75
2023/06/22 11:11:37;;;;;;;7.90;7.20;;;;;;;31.70;43.96;100995.66;108632;1253;61310;-74
2023/06/22 11:14:04;;;;;;;9.20;7.40;;;;;;;31.77;43.63;100994.20;108072;1258;72628;-74